createdAt,value
2022-12-29T00:00:28.617Z,53.66
2022-12-29T00:02:58.584Z,53.90
2022-12-29T00:05:28.493Z,53.80
2022-12-29T00:08:00.913Z,54.04
2022-12-29T00:10:30.815Z,53.89
2022-12-29T00:13:13.183Z,54.01
2022-12-29T00:15:43.149Z,54.38
2022-12-29T00:18:13.040Z,54.10
2022-12-29T00:20:56.357Z,54.18
2022-12-29T00:23:41.614Z,54.59
2022-12-29T00:26:29.946Z,54.57
2022-12-29T00:29:12.335Z,54.61
2022-12-29T00:31:54.920Z,54.41
2022-12-29T00:34:37.263Z,54.57
2022-12-29T00:37:07.218Z,54.71
2022-12-29T00:39:58.418Z,54.97
2022-12-29T00:42:41.284Z,54.64
2022-12-29T00:45:11.925Z,54.86
2022-12-29T00:47:41.790Z,55.59
2022-12-29T00:50:09.345Z,55.97
2022-12-29T00:52:39.199Z,56.14
2022-12-29T00:55:12.206Z,56.58
2022-12-29T00:57:42.031Z,56.67
2022-12-29T01:00:13.851Z,57.34
2022-12-29T01:02:44.201Z,57.91
2022-12-29T01:05:14.131Z,58.42
2022-12-29T01:07:44.110Z,58.59
2022-12-29T01:10:15.745Z,58.69
2022-12-29T01:12:46.250Z,58.54
2022-12-29T01:15:18.649Z,59.11
2022-12-29T01:17:48.519Z,58.73
2022-12-29T01:20:18.425Z,58.94
2022-12-29T01:22:48.472Z,58.59
2022-12-29T01:25:21.147Z,58.35
2022-12-29T01:27:50.985Z,58.25
2022-12-29T01:30:21.038Z,58.55
2022-12-29T01:32:50.922Z,58.35
2022-12-29T01:35:22.396Z,58.06
2022-12-29T01:37:52.317Z,58.39
2022-12-29T01:40:24.807Z,58.45
2022-12-29T01:42:54.777Z,58.38
2022-12-29T01:45:24.878Z,58.03
2022-12-29T01:48:00.747Z,58.27
2022-12-29T01:50:37.215Z,58.45
2022-12-29T01:53:12.830Z,58.52
2022-12-29T01:55:51.922Z,58.56
2022-12-29T01:58:26.553Z,58.76
2022-12-29T02:00:56.477Z,58.71
2022-12-29T02:03:30.688Z,58.07
2022-12-29T02:06:10.927Z,58.19
2022-12-29T02:08:43.854Z,58.48
2022-12-29T02:11:16.920Z,58.36
2022-12-29T02:13:47.071Z,58.33
2022-12-29T02:16:35.303Z,58.08
2022-12-29T02:19:36.089Z,57.81
2022-12-29T02:22:20.479Z,58.01
2022-12-29T02:25:26.044Z,57.78
2022-12-29T02:28:28.053Z,57.69
2022-12-29T02:31:18.074Z,57.57
2022-12-29T02:34:06.552Z,57.73
2022-12-29T02:36:47.439Z,57.49
2022-12-29T02:39:27.498Z,57.56
2022-12-29T02:42:07.804Z,57.51
2022-12-29T02:44:51.567Z,57.62
2022-12-29T02:47:33.575Z,57.42
2022-12-29T02:50:12.259Z,57.93
2022-12-29T02:52:47.809Z,58.02
2022-12-29T02:55:15.086Z,57.58
2022-12-29T02:57:45.439Z,57.71
2022-12-29T03:00:19.720Z,57.45
2022-12-29T03:03:14.369Z,57.73
2022-12-29T03:06:02.940Z,58.08
2022-12-29T03:08:43.642Z,57.69
2022-12-29T03:11:29.622Z,57.62
2022-12-29T03:14:23.354Z,57.45
2022-12-29T03:17:02.614Z,57.25
2022-12-29T03:19:41.921Z,57.63
2022-12-29T03:22:32.338Z,57.38
2022-12-29T03:25:15.718Z,57.08
2022-12-29T03:27:55.301Z,57.00
2022-12-29T03:30:26.791Z,57.03
2022-12-29T03:33:02.345Z,56.80
2022-12-29T03:35:41.484Z,56.64
2022-12-29T03:38:21.097Z,56.45
2022-12-29T03:40:55.853Z,56.29
2022-12-29T03:43:28.474Z,56.40
2022-12-29T03:45:58.825Z,56.35
2022-12-29T03:48:28.838Z,56.54
2022-12-29T03:51:02.626Z,56.31
2022-12-29T03:53:32.506Z,56.69
2022-12-29T03:56:04.014Z,56.29
2022-12-29T03:58:34.331Z,56.39
2022-12-29T04:01:13.983Z,56.39
2022-12-29T04:03:44.224Z,56.02
2022-12-29T04:06:17.473Z,56.14
2022-12-29T04:08:52.838Z,56.49
2022-12-29T04:11:27.090Z,56.38
2022-12-29T04:13:59.962Z,56.03
2022-12-29T04:16:31.163Z,56.44
2022-12-29T04:19:01.063Z,56.34
2022-12-29T04:21:33.602Z,56.37
2022-12-29T04:24:03.944Z,56.14
2022-12-29T04:26:35.618Z,56.02
2022-12-29T04:29:15.828Z,55.96
2022-12-29T04:32:01.829Z,56.02
2022-12-29T04:34:33.649Z,55.68
2022-12-29T04:37:06.373Z,55.80
2022-12-29T04:39:36.330Z,56.10
2022-12-29T04:42:07.459Z,56.35
2022-12-29T04:44:43.027Z,56.10
2022-12-29T04:47:18.638Z,56.16
2022-12-29T04:50:01.652Z,55.87
2022-12-29T04:52:44.286Z,55.83
2022-12-29T04:55:16.982Z,56.12
2022-12-29T04:57:48.600Z,55.88
2022-12-29T05:00:22.192Z,55.94
2022-12-29T05:02:52.235Z,56.08
2022-12-29T05:05:22.363Z,56.00
2022-12-29T05:07:56.818Z,56.17
2022-12-29T05:10:26.742Z,56.17
2022-12-29T05:13:01.908Z,56.65
2022-12-29T05:15:32.428Z,56.67
2022-12-29T05:18:02.371Z,56.45
2022-12-29T05:20:32.975Z,56.83
2022-12-29T05:23:05.502Z,57.03
2022-12-29T05:25:35.585Z,56.68
2022-12-29T05:28:17.047Z,56.96
2022-12-29T05:30:57.331Z,57.21
2022-12-29T05:33:27.226Z,56.98
2022-12-29T05:35:57.162Z,57.11
2022-12-29T05:38:30.057Z,57.13
2022-12-29T05:41:00.137Z,57.01
2022-12-29T05:43:55.858Z,57.17
2022-12-29T05:46:31.608Z,57.10
2022-12-29T05:49:12.653Z,57.26
2022-12-29T05:52:00.890Z,57.53
2022-12-29T05:54:34.454Z,57.55
2022-12-29T05:57:10.923Z,57.23
2022-12-29T05:59:42.489Z,57.28
2022-12-29T06:02:13.308Z,57.57
2022-12-29T06:04:45.131Z,57.72
2022-12-29T06:07:15.043Z,57.63
2022-12-29T06:09:49.841Z,57.40
2022-12-29T06:12:19.895Z,57.30
2022-12-29T06:14:52.086Z,56.86
2022-12-29T06:17:21.910Z,56.78
2022-12-29T06:19:53.356Z,56.44
2022-12-29T06:22:23.962Z,56.46
2022-12-29T06:25:00.137Z,56.42
2022-12-29T06:27:36.085Z,55.87
2022-12-29T06:30:06.522Z,55.75
2022-12-29T06:32:36.632Z,55.53
2022-12-29T06:35:09.927Z,55.27
2022-12-29T06:37:44.508Z,55.24
2022-12-29T06:40:17.629Z,54.97
2022-12-29T06:43:08.491Z,54.94
2022-12-29T06:45:57.123Z,54.74
2022-12-29T06:48:26.985Z,55.14
2022-12-29T06:50:56.808Z,54.71
2022-12-29T06:53:26.724Z,55.00
2022-12-29T06:55:59.822Z,54.35
2022-12-29T06:58:29.779Z,54.61
2022-12-29T07:00:59.672Z,54.61
2022-12-29T07:03:29.674Z,54.40
2022-12-29T07:05:59.676Z,54.78
2022-12-29T07:08:29.629Z,54.69
2022-12-29T07:11:02.023Z,54.83
2022-12-29T07:13:32.869Z,54.75
2022-12-29T07:16:02.784Z,54.18
2022-12-29T07:18:32.613Z,53.39
2022-12-29T07:21:02.723Z,53.51
2022-12-29T07:23:32.675Z,53.49
2022-12-29T07:26:06.887Z,53.49
2022-12-29T07:28:39.063Z,53.45
2022-12-29T07:31:09.717Z,53.58
2022-12-29T07:33:39.610Z,53.84
2022-12-29T07:36:10.940Z,52.95
2022-12-29T07:38:41.041Z,52.74
2022-12-29T07:41:13.718Z,53.04
2022-12-29T07:43:44.061Z,52.85
2022-12-29T07:46:55.336Z,52.54
2022-12-29T07:49:27.113Z,52.58
2022-12-29T07:51:59.532Z,52.68
2022-12-29T07:54:29.498Z,52.77
2022-12-29T07:57:01.968Z,52.79
2022-12-29T07:59:31.869Z,52.64
2022-12-29T08:02:01.858Z,52.45
2022-12-29T08:04:33.023Z,52.55
2022-12-29T08:07:02.900Z,52.46
2022-12-29T08:09:32.778Z,52.57
2022-12-29T08:12:05.244Z,52.13
2022-12-29T08:14:35.154Z,52.30
2022-12-29T08:17:05.466Z,52.06
2022-12-29T08:19:35.390Z,52.21
2022-12-29T08:22:05.758Z,52.11
2022-12-29T08:24:36.453Z,52.18
2022-12-29T08:27:16.136Z,52.03
2022-12-29T08:29:50.566Z,52.14
2022-12-29T08:32:20.653Z,51.99
2022-12-29T08:34:50.534Z,52.01
2022-12-29T08:37:20.405Z,52.01
2022-12-29T08:39:50.264Z,51.93
2022-12-29T08:42:22.683Z,51.69
2022-12-29T08:44:53.384Z,51.92
2022-12-29T08:47:23.221Z,51.78
2022-12-29T08:49:53.738Z,52.18
2022-12-29T08:52:24.009Z,51.52
2022-12-29T08:54:54.158Z,51.84
2022-12-29T08:57:27.426Z,51.90
2022-12-29T09:00:10.691Z,51.94
2022-12-29T09:02:40.881Z,52.03
2022-12-29T09:05:12.383Z,51.60
2022-12-29T09:07:44.459Z,51.92
2022-12-29T09:10:14.512Z,51.72
2022-12-29T09:12:47.048Z,52.12
2022-12-29T09:15:16.969Z,51.64
2022-12-29T09:17:49.914Z,51.89
2022-12-29T09:20:23.152Z,51.95
2022-12-29T09:22:53.303Z,51.86
2022-12-29T09:25:25.302Z,52.25
2022-12-29T09:27:57.963Z,52.13
2022-12-29T09:30:28.464Z,52.56
2022-12-29T09:32:58.338Z,52.44
2022-12-29T09:35:28.234Z,52.46
2022-12-29T09:37:58.085Z,52.39
2022-12-29T09:40:32.887Z,52.82
2022-12-29T09:43:27.164Z,53.12
2022-12-29T09:46:11.410Z,52.94
2022-12-29T09:48:48.061Z,52.69
2022-12-29T09:51:25.987Z,52.48
2022-12-29T09:54:02.377Z,53.02
2022-12-29T09:56:32.488Z,52.86
2022-12-29T09:59:14.610Z,52.93
2022-12-29T10:01:55.801Z,53.51
2022-12-29T10:04:25.876Z,53.99
2022-12-29T10:07:28.699Z,54.37
2022-12-29T10:10:06.979Z,54.36
2022-12-29T10:12:54.229Z,54.87
2022-12-29T10:15:41.918Z,55.35
2022-12-29T10:18:35.713Z,56.63
2022-12-29T10:21:16.473Z,56.90
2022-12-29T10:23:51.512Z,57.42
2022-12-29T10:26:26.614Z,57.54
2022-12-29T10:29:02.231Z,57.48
2022-12-29T10:31:41.507Z,57.73
2022-12-29T10:34:24.470Z,57.19
2022-12-29T10:37:02.339Z,56.54
2022-12-29T10:39:37.775Z,55.55
2022-12-29T10:42:17.638Z,56.06
2022-12-29T10:44:47.715Z,56.41
2022-12-29T10:47:26.839Z,55.83
2022-12-29T10:49:59.383Z,56.33
2022-12-29T10:52:32.349Z,56.25
2022-12-29T10:55:06.959Z,56.55
2022-12-29T10:57:41.706Z,55.72
2022-12-29T11:00:17.632Z,55.74
2022-12-29T11:03:19.825Z,55.36
2022-12-29T11:05:58.841Z,55.36
2022-12-29T11:08:33.785Z,55.37
2022-12-29T11:11:06.161Z,55.23
2022-12-29T11:13:39.707Z,55.49
2022-12-29T11:16:10.449Z,55.26
2022-12-29T11:18:44.702Z,54.63
2022-12-29T11:21:31.526Z,55.38
2022-12-29T11:24:03.906Z,54.64
2022-12-29T11:26:35.444Z,55.18
2022-12-29T11:29:23.760Z,54.59
2022-12-29T11:31:56.301Z,53.64
2022-12-29T11:34:34.133Z,53.89
2022-12-29T11:37:07.972Z,53.59
2022-12-29T11:39:44.104Z,53.09
2022-12-29T11:42:21.447Z,54.03
2022-12-29T11:44:55.065Z,54.02
2022-12-29T11:47:32.014Z,54.65
2022-12-29T11:50:08.117Z,54.47
2022-12-29T11:52:41.086Z,54.37
2022-12-29T11:55:23.430Z,53.84
2022-12-29T11:57:56.667Z,54.67
2022-12-29T12:00:29.815Z,54.09
2022-12-29T12:03:05.723Z,53.82
2022-12-29T12:05:51.405Z,54.18
2022-12-29T12:08:32.251Z,53.90
2022-12-29T12:11:11.875Z,53.19
2022-12-29T12:13:56.583Z,51.97
2022-12-29T12:16:39.262Z,52.26
2022-12-29T12:19:23.917Z,51.38
2022-12-29T12:22:06.927Z,52.30
2022-12-29T12:24:46.359Z,52.78
2022-12-29T12:27:24.676Z,52.95
2022-12-29T12:30:04.003Z,52.81
2022-12-29T12:32:46.494Z,53.22
2022-12-29T12:35:21.940Z,53.49
2022-12-29T12:38:13.356Z,53.55
2022-12-29T12:41:04.250Z,54.38
2022-12-29T12:43:46.921Z,54.46
2022-12-29T12:46:43.436Z,55.03
2022-12-29T12:49:36.182Z,55.38
2022-12-29T12:52:15.394Z,55.39
2022-12-29T12:55:10.124Z,55.71
2022-12-29T12:57:58.197Z,55.31
2022-12-29T13:00:28.926Z,55.65
2022-12-29T13:03:16.376Z,55.42
2022-12-29T13:06:04.782Z,55.82
2022-12-29T13:08:58.551Z,55.49
2022-12-29T13:11:47.011Z,55.60
2022-12-29T13:14:36.241Z,55.82
2022-12-29T13:17:15.305Z,55.83
2022-12-29T13:19:56.044Z,56.09
2022-12-29T13:22:35.283Z,56.25
2022-12-29T13:25:25.554Z,56.75
2022-12-29T13:28:07.563Z,57.18
2022-12-29T13:30:47.512Z,58.31
2022-12-29T13:33:31.282Z,58.75
2022-12-29T13:36:08.999Z,59.52
2022-12-29T13:38:44.053Z,60.09
2022-12-29T13:41:20.263Z,60.77
2022-12-29T13:43:54.281Z,61.47
2022-12-29T13:46:30.760Z,62.01
2022-12-29T13:49:06.199Z,62.73
2022-12-29T13:51:38.260Z,64.47
2022-12-29T13:54:21.906Z,65.05
2022-12-29T13:57:01.112Z,66.14
2022-12-29T13:59:46.001Z,67.12
2022-12-29T14:02:30.253Z,69.08
2022-12-29T14:05:03.177Z,69.68
2022-12-29T14:07:41.300Z,70.35
2022-12-29T14:10:34.492Z,71.86
2022-12-29T14:13:08.817Z,72.73
2022-12-29T14:15:44.943Z,73.71
2022-12-29T14:18:20.002Z,73.44
2022-12-29T14:20:57.920Z,73.51
2022-12-29T14:23:40.923Z,73.69
2022-12-29T14:26:37.295Z,74.63
2022-12-29T14:29:46.355Z,75.11
2022-12-29T14:32:42.982Z,74.61
2022-12-29T14:35:44.384Z,74.56
2022-12-29T14:38:21.709Z,74.61
2022-12-29T14:40:53.503Z,75.05
2022-12-29T14:43:31.405Z,74.71
2022-12-29T14:46:05.761Z,75.14
2022-12-29T14:48:48.221Z,74.81
2022-12-29T14:51:26.673Z,74.82
2022-12-29T14:53:56.719Z,74.71
2022-12-29T14:56:32.325Z,74.79
2022-12-29T14:59:06.798Z,74.20
2022-12-29T15:01:46.924Z,74.42
2022-12-29T15:04:26.895Z,74.87
2022-12-29T15:07:04.454Z,74.58
2022-12-29T15:09:39.886Z,74.55
2022-12-29T15:12:22.889Z,74.39
2022-12-29T15:14:56.282Z,74.74
2022-12-29T15:17:31.610Z,73.79
2022-12-29T15:20:20.682Z,74.31
2022-12-29T15:22:56.989Z,74.41
2022-12-29T15:25:28.936Z,74.66
2022-12-29T15:28:05.382Z,75.30
2022-12-29T15:30:36.847Z,75.88
2022-12-29T15:33:21.493Z,76.16
2022-12-29T15:35:58.114Z,75.85
2022-12-29T15:38:37.075Z,76.08
2022-12-29T15:41:28.175Z,76.22
2022-12-29T15:44:13.156Z,76.21
2022-12-29T15:46:43.153Z,76.22
2022-12-29T15:49:19.714Z,75.71
2022-12-29T15:51:53.394Z,75.89
2022-12-29T15:54:26.313Z,75.11
2022-12-29T15:56:56.639Z,75.21
2022-12-29T15:59:29.718Z,75.40
2022-12-29T16:02:02.786Z,75.91
2022-12-29T16:04:54.292Z,75.75
2022-12-29T16:07:47.999Z,76.39
2022-12-29T16:10:31.887Z,75.91
2022-12-29T16:13:08.703Z,76.45
2022-12-29T16:15:41.021Z,75.93
2022-12-29T16:18:27.438Z,76.15
2022-12-29T16:20:58.831Z,76.01
2022-12-29T16:23:34.075Z,76.24
2022-12-29T16:26:05.120Z,76.40
2022-12-29T16:28:45.797Z,76.43
2022-12-29T16:31:27.195Z,76.14
2022-12-29T16:34:00.139Z,76.07
2022-12-29T16:36:37.781Z,76.51
2022-12-29T16:39:29.598Z,77.02
2022-12-29T16:42:00.248Z,77.03
2022-12-29T16:44:33.593Z,76.08
2022-12-29T16:47:24.603Z,75.81
2022-12-29T16:49:57.596Z,75.98
2022-12-29T16:52:38.102Z,76.50
2022-12-29T16:55:28.230Z,75.70
2022-12-29T16:58:00.468Z,75.43
2022-12-29T17:00:39.282Z,75.58
2022-12-29T17:03:15.531Z,76.21
2022-12-29T17:05:45.475Z,76.57
2022-12-29T17:08:24.064Z,76.19
2022-12-29T17:11:12.318Z,76.43
2022-12-29T17:13:42.802Z,76.68
2022-12-29T17:16:15.043Z,76.17
2022-12-29T17:18:44.984Z,76.33
2022-12-29T17:21:14.805Z,76.34
2022-12-29T17:23:44.696Z,76.36
2022-12-29T17:26:17.140Z,76.02
2022-12-29T17:28:55.912Z,76.77
2022-12-29T17:31:30.333Z,76.42
2022-12-29T17:34:02.579Z,76.37
2022-12-29T17:36:32.504Z,76.35
2022-12-29T17:39:03.968Z,76.75
2022-12-29T17:41:39.671Z,76.71
2022-12-29T17:44:10.215Z,76.92
2022-12-29T17:46:43.082Z,76.90
2022-12-29T17:49:17.506Z,76.82
2022-12-29T17:51:50.608Z,76.68
2022-12-29T17:54:24.605Z,76.00
2022-12-29T17:57:00.466Z,76.49
2022-12-29T17:59:30.430Z,76.05
2022-12-29T18:02:01.519Z,75.78
2022-12-29T18:04:31.460Z,75.51
2022-12-29T18:07:01.851Z,75.49
2022-12-29T18:09:31.735Z,75.42
2022-12-29T18:12:04.299Z,75.57
2022-12-29T18:14:35.379Z,75.48
2022-12-29T18:17:11.936Z,75.56
2022-12-29T18:19:41.816Z,75.43
2022-12-29T18:22:11.703Z,75.76
2022-12-29T18:24:41.700Z,75.49
2022-12-29T18:27:19.601Z,75.46
2022-12-29T18:29:49.660Z,75.46
2022-12-29T18:32:21.373Z,75.92
2022-12-29T18:34:51.691Z,76.63
2022-12-29T18:37:22.535Z,76.63
2022-12-29T18:39:54.231Z,76.20
2022-12-29T18:42:26.713Z,76.40
2022-12-29T18:44:56.606Z,76.58
2022-12-29T18:47:26.486Z,76.80
2022-12-29T18:49:57.391Z,76.40
2022-12-29T18:52:27.710Z,76.82
2022-12-29T18:54:57.561Z,77.20
2022-12-29T18:57:32.696Z,77.23
2022-12-29T19:00:02.618Z,77.16
2022-12-29T19:02:32.772Z,77.56
2022-12-29T19:05:07.463Z,77.47
2022-12-29T19:07:38.643Z,77.46
2022-12-29T19:10:09.757Z,77.70
2022-12-29T19:12:42.414Z,77.57
2022-12-29T19:15:20.971Z,77.43
2022-12-29T19:18:08.533Z,77.08
2022-12-29T19:20:46.223Z,77.51
2022-12-29T19:23:18.324Z,77.30
2022-12-29T19:25:49.477Z,77.48
2022-12-29T19:28:25.656Z,77.52
2022-12-29T19:30:57.569Z,77.19
2022-12-29T19:33:28.114Z,77.11
2022-12-29T19:36:06.002Z,77.64
2022-12-29T19:42:20.813Z,77.19
2022-12-29T19:44:53.676Z,76.98
2022-12-29T19:47:32.123Z,77.11
2022-12-29T19:50:06.221Z,77.26
2022-12-29T19:52:36.622Z,76.62
2022-12-29T19:55:08.556Z,76.91
2022-12-29T19:57:38.647Z,77.22
2022-12-29T20:00:13.618Z,77.30
2022-12-29T20:02:44.760Z,77.27
2022-12-29T20:05:14.780Z,77.16
2022-12-29T20:07:44.688Z,76.58
2022-12-29T20:10:14.698Z,77.10
2022-12-29T20:12:44.712Z,76.54
2022-12-29T20:15:20.374Z,77.01
2022-12-29T20:20:40.510Z,77.11
2022-12-29T20:23:10.486Z,77.14
2022-12-29T20:25:45.190Z,76.75
2022-12-29T20:28:19.562Z,76.94
2022-12-29T20:30:57.993Z,76.22
2022-12-29T20:33:28.556Z,76.64
2022-12-29T20:36:06.177Z,77.01
2022-12-29T20:38:41.122Z,76.73
2022-12-29T20:41:12.290Z,76.31
2022-12-29T20:43:43.764Z,76.55
2022-12-29T20:46:21.437Z,76.79
2022-12-29T20:48:54.667Z,76.28
2022-12-29T20:51:25.172Z,76.16
2022-12-29T20:53:57.924Z,76.22
2022-12-29T20:56:32.642Z,76.27
2022-12-29T21:01:59.241Z,75.37
2022-12-29T21:04:43.748Z,75.56
2022-12-29T21:07:20.349Z,75.92
2022-12-29T21:09:50.607Z,75.73
2022-12-29T21:12:20.584Z,75.12
2022-12-29T21:14:50.496Z,74.38
2022-12-29T21:17:22.987Z,74.89
2022-12-29T21:19:52.949Z,74.29
2022-12-29T21:22:24.151Z,74.85
2022-12-29T21:24:54.108Z,74.49
2022-12-29T21:27:24.547Z,73.94
2022-12-29T21:29:58.091Z,73.84
2022-12-29T21:32:31.783Z,73.27
2022-12-29T21:35:01.653Z,73.11
2022-12-29T21:37:31.591Z,73.19
2022-12-29T21:40:01.468Z,73.32
2022-12-29T21:42:31.400Z,73.07
2022-12-29T21:45:19.905Z,73.09
2022-12-29T21:48:06.106Z,73.22
2022-12-29T21:50:35.986Z,74.02
2022-12-29T21:53:05.866Z,74.63
2022-12-29T21:55:39.012Z,74.50
2022-12-29T21:58:21.391Z,73.76
2022-12-29T22:01:03.756Z,73.69
2022-12-29T22:03:48.794Z,73.69
2022-12-29T22:06:31.216Z,73.68
2022-12-29T22:09:13.541Z,73.55
2022-12-29T22:11:56.460Z,73.28
2022-12-29T22:14:26.325Z,73.59
2022-12-29T22:16:56.218Z,73.57
2022-12-29T22:19:28.685Z,73.33
2022-12-29T22:22:01.517Z,73.31
2022-12-29T22:24:31.351Z,73.16
2022-12-29T22:27:01.326Z,73.32
2022-12-29T22:29:31.199Z,72.92
2022-12-29T22:32:05.564Z,72.77
2022-12-29T22:34:40.894Z,73.17
2022-12-29T22:37:10.864Z,72.74
2022-12-29T22:39:40.684Z,72.83
2022-12-29T22:42:11.142Z,72.17
2022-12-29T22:44:40.993Z,72.03
2022-12-29T22:47:10.972Z,71.68
2022-12-29T22:49:47.159Z,71.32
2022-12-29T22:52:17.334Z,71.59
2022-12-29T22:54:47.224Z,71.46
2022-12-29T22:57:17.170Z,70.92
2022-12-29T22:59:47.155Z,71.06
2022-12-29T23:02:17.313Z,71.12
2022-12-29T23:05:04.348Z,71.22
2022-12-29T23:07:36.436Z,70.89
2022-12-29T23:10:07.902Z,71.02
2022-12-29T23:12:37.939Z,70.83
2022-12-29T23:15:09.254Z,70.78
2022-12-29T23:17:39.182Z,71.37
2022-12-29T23:20:13.067Z,71.35
2022-12-29T23:22:42.931Z,71.83
2022-12-29T23:25:12.879Z,71.50
2022-12-29T23:27:42.785Z,71.97
2022-12-29T23:30:13.368Z,71.69
2022-12-29T23:32:43.300Z,71.58
2022-12-29T23:35:15.905Z,71.67
2022-12-29T23:37:46.064Z,71.29
2022-12-29T23:40:16.610Z,71.84
2022-12-29T23:42:46.471Z,71.61
2022-12-29T23:45:16.372Z,72.06
2022-12-29T23:47:46.204Z,72.08
2022-12-29T23:50:18.845Z,72.11
2022-12-29T23:52:48.641Z,72.09
2022-12-29T23:55:18.847Z,71.46
2022-12-29T23:57:48.734Z,72.04
